sensor_id;sensor_type;location;lat;lon;timestamp;P1;durP1;ratioP1;P2;durP2;ratioP2
39074;SDS011;24826;52.070;20.970;2023-05-10T00:01:49;6.93;;;2.90;;
39074;SDS011;24826;52.070;20.970;2023-05-10T00:04:34;5.53;;;2.72;;
39074;SDS011;24826;52.070;20.970;2023-05-10T00:07:18;5.47;;;2.67;;
39074;SDS011;24826;52.070;20.970;2023-05-10T00:10:03;6.00;;;2.67;;
39074;SDS011;24826;52.070;20.970;2023-05-10T00:12:48;5.10;;;2.50;;
39074;SDS011;24826;52.070;20.970;2023-05-10T00:15:32;5.88;;;2.63;;
39074;SDS011;24826;52.070;20.970;2023-05-10T00:18:18;5.50;;;2.45;;
39074;SDS011;24826;52.070;20.970;2023-05-10T00:21:02;5.93;;;2.80;;
39074;SDS011;24826;52.070;20.970;2023-05-10T00:23:47;4.68;;;2.67;;
39074;SDS011;24826;52.070;20.970;2023-05-10T00:26:32;7.28;;;2.70;;
39074;SDS011;24826;52.070;20.970;2023-05-10T00:29:16;5.85;;;2.80;;
39074;SDS011;24826;52.070;20.970;2023-05-10T00:32:01;4.93;;;2.30;;
39074;SDS011;24826;52.070;20.970;2023-05-10T00:34:46;5.20;;;2.92;;
39074;SDS011;24826;52.070;20.970;2023-05-10T00:37:30;5.18;;;2.60;;
39074;SDS011;24826;52.070;20.970;2023-05-10T00:40:14;6.15;;;2.60;;
39074;SDS011;24826;52.070;20.970;2023-05-10T00:42:59;7.43;;;2.70;;
39074;SDS011;24826;52.070;20.970;2023-05-10T00:45:45;5.70;;;3.08;;
39074;SDS011;24826;52.070;20.970;2023-05-10T00:48:29;4.35;;;2.40;;
39074;SDS011;24826;52.070;20.970;2023-05-10T00:51:13;4.90;;;2.60;;
39074;SDS011;24826;52.070;20.970;2023-05-10T00:53:58;5.45;;;2.67;;
39074;SDS011;24826;52.070;20.970;2023-05-10T00:56:42;5.85;;;2.33;;
39074;SDS011;24826;52.070;20.970;2023-05-10T00:59:32;5.38;;;2.83;;
39074;SDS011;24826;52.070;20.970;2023-05-10T01:02:17;5.75;;;2.67;;
39074;SDS011;24826;52.070;20.970;2023-05-10T01:05:02;4.68;;;2.42;;
39074;SDS011;24826;52.070;20.970;2023-05-10T01:07:49;7.15;;;2.65;;
39074;SDS011;24826;52.070;20.970;2023-05-10T01:10:34;5.95;;;2.92;;
39074;SDS011;24826;52.070;20.970;2023-05-10T01:13:37;5.25;;;2.78;;
39074;SDS011;24826;52.070;20.970;2023-05-10T01:16:24;3.58;;;2.10;;
39074;SDS011;24826;52.070;20.970;2023-05-10T01:19:17;4.45;;;2.42;;
39074;SDS011;24826;52.070;20.970;2023-05-10T01:28:37;5.78;;;2.55;;
39074;SDS011;24826;52.070;20.970;2023-05-10T01:31:50;5.18;;;2.22;;
39074;SDS011;24826;52.070;20.970;2023-05-10T01:34:36;4.82;;;2.75;;
39074;SDS011;24826;52.070;20.970;2023-05-10T01:40:35;4.30;;;2.28;;
39074;SDS011;24826;52.070;20.970;2023-05-10T01:43:25;4.95;;;2.22;;
39074;SDS011;24826;52.070;20.970;2023-05-10T01:46:14;5.50;;;2.60;;
39074;SDS011;24826;52.070;20.970;2023-05-10T01:49:03;5.65;;;2.75;;
39074;SDS011;24826;52.070;20.970;2023-05-10T01:51:53;4.23;;;2.47;;
39074;SDS011;24826;52.070;20.970;2023-05-10T01:54:44;5.28;;;2.35;;
39074;SDS011;24826;52.070;20.970;2023-05-10T01:57:36;5.63;;;3.15;;
39074;SDS011;24826;52.070;20.970;2023-05-10T02:00:23;4.72;;;2.70;;
39074;SDS011;24826;52.070;20.970;2023-05-10T02:03:09;6.30;;;2.60;;
39074;SDS011;24826;52.070;20.970;2023-05-10T02:05:55;6.90;;;2.53;;
39074;SDS011;24826;52.070;20.970;2023-05-10T02:08:41;4.75;;;2.38;;
39074;SDS011;24826;52.070;20.970;2023-05-10T02:11:27;4.25;;;2.20;;
39074;SDS011;24826;52.070;20.970;2023-05-10T02:14:13;4.88;;;2.70;;
39074;SDS011;24826;52.070;20.970;2023-05-10T02:17:00;5.35;;;3.05;;
39074;SDS011;24826;52.070;20.970;2023-05-10T02:19:48;4.50;;;2.40;;
39074;SDS011;24826;52.070;20.970;2023-05-10T02:22:33;4.68;;;2.75;;
39074;SDS011;24826;52.070;20.970;2023-05-10T02:25:20;4.65;;;2.30;;
39074;SDS011;24826;52.070;20.970;2023-05-10T02:28:06;4.65;;;2.33;;
39074;SDS011;24826;52.070;20.970;2023-05-10T02:30:51;5.22;;;2.40;;
39074;SDS011;24826;52.070;20.970;2023-05-10T02:33:38;3.55;;;2.20;;
39074;SDS011;24826;52.070;20.970;2023-05-10T02:36:24;4.40;;;2.80;;
39074;SDS011;24826;52.070;20.970;2023-05-10T02:39:11;4.32;;;2.22;;
39074;SDS011;24826;52.070;20.970;2023-05-10T02:41:57;4.20;;;2.45;;
39074;SDS011;24826;52.070;20.970;2023-05-10T02:44:43;4.72;;;2.30;;
39074;SDS011;24826;52.070;20.970;2023-05-10T02:47:32;4.85;;;2.45;;
39074;SDS011;24826;52.070;20.970;2023-05-10T02:50:16;4.55;;;2.40;;
39074;SDS011;24826;52.070;20.970;2023-05-10T02:53:01;5.30;;;2.85;;
39074;SDS011;24826;52.070;20.970;2023-05-10T02:55:51;5.30;;;2.83;;
39074;SDS011;24826;52.070;20.970;2023-05-10T02:58:37;4.45;;;2.20;;
39074;SDS011;24826;52.070;20.970;2023-05-10T03:01:21;4.03;;;2.30;;
39074;SDS011;24826;52.070;20.970;2023-05-10T03:04:06;4.50;;;2.88;;
39074;SDS011;24826;52.070;20.970;2023-05-10T03:06:50;5.50;;;2.88;;
39074;SDS011;24826;52.070;20.970;2023-05-10T03:09:36;3.70;;;2.35;;
39074;SDS011;24826;52.070;20.970;2023-05-10T03:18:10;3.92;;;2.40;;
39074;SDS011;24826;52.070;20.970;2023-05-10T03:21:00;4.97;;;2.47;;
39074;SDS011;24826;52.070;20.970;2023-05-10T03:23:59;5.10;;;2.60;;
39074;SDS011;24826;52.070;20.970;2023-05-10T03:26:47;4.35;;;2.30;;
39074;SDS011;24826;52.070;20.970;2023-05-10T03:29:32;4.45;;;2.50;;
39074;SDS011;24826;52.070;20.970;2023-05-10T03:32:17;5.43;;;2.92;;
39074;SDS011;24826;52.070;20.970;2023-05-10T03:35:06;4.35;;;2.42;;
39074;SDS011;24826;52.070;20.970;2023-05-10T03:37:53;4.28;;;2.45;;
39074;SDS011;24826;52.070;20.970;2023-05-10T03:40:37;4.80;;;2.35;;
39074;SDS011;24826;52.070;20.970;2023-05-10T03:43:23;4.80;;;2.30;;
39074;SDS011;24826;52.070;20.970;2023-05-10T03:46:07;4.20;;;2.40;;
39074;SDS011;24826;52.070;20.970;2023-05-10T03:48:52;4.80;;;2.40;;
39074;SDS011;24826;52.070;20.970;2023-05-10T03:51:36;5.18;;;2.50;;
39074;SDS011;24826;52.070;20.970;2023-05-10T03:54:20;5.47;;;2.60;;
39074;SDS011;24826;52.070;20.970;2023-05-10T03:57:05;4.60;;;2.42;;
39074;SDS011;24826;52.070;20.970;2023-05-10T03:59:50;4.88;;;2.47;;
39074;SDS011;24826;52.070;20.970;2023-05-10T04:02:34;3.90;;;2.20;;
39074;SDS011;24826;52.070;20.970;2023-05-10T04:05:19;4.50;;;2.53;;
39074;SDS011;24826;52.070;20.970;2023-05-10T04:08:03;3.92;;;2.10;;
39074;SDS011;24826;52.070;20.970;2023-05-10T04:10:49;5.43;;;2.47;;
39074;SDS011;24826;52.070;20.970;2023-05-10T04:13:33;5.35;;;2.65;;
39074;SDS011;24826;52.070;20.970;2023-05-10T04:16:18;4.05;;;2.38;;
39074;SDS011;24826;52.070;20.970;2023-05-10T04:19:02;6.18;;;2.47;;
39074;SDS011;24826;52.070;20.970;2023-05-10T04:21:47;6.20;;;2.75;;
39074;SDS011;24826;52.070;20.970;2023-05-10T04:24:31;5.22;;;2.80;;
39074;SDS011;24826;52.070;20.970;2023-05-10T04:27:16;5.45;;;2.58;;
39074;SDS011;24826;52.070;20.970;2023-05-10T04:30:00;4.60;;;2.65;;
39074;SDS011;24826;52.070;20.970;2023-05-10T04:32:45;5.95;;;2.40;;
39074;SDS011;24826;52.070;20.970;2023-05-10T04:35:29;5.03;;;2.60;;
39074;SDS011;24826;52.070;20.970;2023-05-10T04:38:14;4.45;;;2.58;;
39074;SDS011;24826;52.070;20.970;2023-05-10T04:41:05;5.32;;;2.60;;
39074;SDS011;24826;52.070;20.970;2023-05-10T04:43:51;4.60;;;2.20;;
39074;SDS011;24826;52.070;20.970;2023-05-10T04:46:35;4.32;;;2.10;;
39074;SDS011;24826;52.070;20.970;2023-05-10T04:49:20;5.00;;;2.45;;
39074;SDS011;24826;52.070;20.970;2023-05-10T04:52:04;6.28;;;2.92;;
39074;SDS011;24826;52.070;20.970;2023-05-10T04:54:49;11.13;;;2.40;;
39074;SDS011;24826;52.070;20.970;2023-05-10T04:57:33;10.18;;;3.42;;
39074;SDS011;24826;52.070;20.970;2023-05-10T05:00:18;6.75;;;2.60;;
39074;SDS011;24826;52.070;20.970;2023-05-10T05:03:03;5.00;;;2.45;;
39074;SDS011;24826;52.070;20.970;2023-05-10T05:05:47;10.88;;;3.17;;
39074;SDS011;24826;52.070;20.970;2023-05-10T05:08:32;7.18;;;2.42;;
39074;SDS011;24826;52.070;20.970;2023-05-10T05:11:19;7.00;;;2.25;;
39074;SDS011;24826;52.070;20.970;2023-05-10T05:14:04;5.50;;;2.75;;
39074;SDS011;24826;52.070;20.970;2023-05-10T05:16:49;4.90;;;2.88;;
39074;SDS011;24826;52.070;20.970;2023-05-10T05:19:33;4.55;;;2.45;;
39074;SDS011;24826;52.070;20.970;2023-05-10T05:22:18;4.80;;;2.58;;
39074;SDS011;24826;52.070;20.970;2023-05-10T05:25:03;7.75;;;2.60;;
39074;SDS011;24826;52.070;20.970;2023-05-10T05:27:48;4.22;;;2.28;;
39074;SDS011;24826;52.070;20.970;2023-05-10T05:30:32;4.10;;;2.10;;
39074;SDS011;24826;52.070;20.970;2023-05-10T05:33:17;4.55;;;2.35;;
39074;SDS011;24826;52.070;20.970;2023-05-10T05:36:01;5.45;;;2.08;;
39074;SDS011;24826;52.070;20.970;2023-05-10T05:38:47;4.72;;;2.33;;
39074;SDS011;24826;52.070;20.970;2023-05-10T05:41:31;5.57;;;2.70;;
39074;SDS011;24826;52.070;20.970;2023-05-10T05:44:15;5.78;;;2.28;;
39074;SDS011;24826;52.070;20.970;2023-05-10T05:46:59;6.07;;;2.92;;
39074;SDS011;24826;52.070;20.970;2023-05-10T05:49:44;5.00;;;2.28;;
39074;SDS011;24826;52.070;20.970;2023-05-10T05:52:31;5.03;;;2.03;;
39074;SDS011;24826;52.070;20.970;2023-05-10T05:55:16;5.82;;;2.22;;
39074;SDS011;24826;52.070;20.970;2023-05-10T05:58:01;8.90;;;2.22;;
39074;SDS011;24826;52.070;20.970;2023-05-10T06:00:45;5.25;;;1.80;;
39074;SDS011;24826;52.070;20.970;2023-05-10T06:03:30;4.60;;;2.20;;
39074;SDS011;24826;52.070;20.970;2023-05-10T06:06:15;5.40;;;2.00;;
39074;SDS011;24826;52.070;20.970;2023-05-10T06:08:59;5.43;;;2.38;;
39074;SDS011;24826;52.070;20.970;2023-05-10T06:11:43;6.88;;;2.55;;
39074;SDS011;24826;52.070;20.970;2023-05-10T06:14:28;4.40;;;2.17;;
39074;SDS011;24826;52.070;20.970;2023-05-10T06:17:12;4.43;;;2.20;;
39074;SDS011;24826;52.070;20.970;2023-05-10T06:19:57;5.50;;;2.03;;
39074;SDS011;24826;52.070;20.970;2023-05-10T06:22:41;3.67;;;2.20;;
39074;SDS011;24826;52.070;20.970;2023-05-10T06:25:26;6.00;;;2.47;;
39074;SDS011;24826;52.070;20.970;2023-05-10T06:28:10;4.45;;;2.45;;
39074;SDS011;24826;52.070;20.970;2023-05-10T06:30:55;6.32;;;2.72;;
39074;SDS011;24826;52.070;20.970;2023-05-10T06:33:39;7.07;;;2.45;;
39074;SDS011;24826;52.070;20.970;2023-05-10T06:36:24;3.95;;;2.33;;
39074;SDS011;24826;52.070;20.970;2023-05-10T06:39:10;5.88;;;2.30;;
39074;SDS011;24826;52.070;20.970;2023-05-10T06:41:56;3.40;;;1.85;;
39074;SDS011;24826;52.070;20.970;2023-05-10T06:44:40;4.20;;;2.28;;
39074;SDS011;24826;52.070;20.970;2023-05-10T06:47:25;5.15;;;2.10;;
39074;SDS011;24826;52.070;20.970;2023-05-10T06:50:10;4.45;;;2.10;;
39074;SDS011;24826;52.070;20.970;2023-05-10T06:52:55;4.97;;;2.15;;
39074;SDS011;24826;52.070;20.970;2023-05-10T06:55:39;5.72;;;2.08;;
39074;SDS011;24826;52.070;20.970;2023-05-10T06:58:24;7.90;;;2.35;;
39074;SDS011;24826;52.070;20.970;2023-05-10T07:01:08;4.70;;;2.20;;
39074;SDS011;24826;52.070;20.970;2023-05-10T07:03:53;4.10;;;1.88;;
39074;SDS011;24826;52.070;20.970;2023-05-10T07:06:37;6.10;;;2.40;;
39074;SDS011;24826;52.070;20.970;2023-05-10T07:09:22;7.93;;;2.67;;
39074;SDS011;24826;52.070;20.970;2023-05-10T07:12:08;5.47;;;2.35;;
39074;SDS011;24826;52.070;20.970;2023-05-10T07:14:53;6.70;;;2.78;;
39074;SDS011;24826;52.070;20.970;2023-05-10T07:17:37;4.40;;;2.28;;
39074;SDS011;24826;52.070;20.970;2023-05-10T07:20:21;4.75;;;1.92;;
39074;SDS011;24826;52.070;20.970;2023-05-10T07:23:05;7.97;;;2.60;;
39074;SDS011;24826;52.070;20.970;2023-05-10T07:25:50;5.70;;;2.58;;
39074;SDS011;24826;52.070;20.970;2023-05-10T07:28:38;3.85;;;2.33;;
39074;SDS011;24826;52.070;20.970;2023-05-10T07:31:23;4.40;;;2.33;;
39074;SDS011;24826;52.070;20.970;2023-05-10T07:34:07;5.38;;;1.98;;
39074;SDS011;24826;52.070;20.970;2023-05-10T07:36:52;5.22;;;2.05;;
39074;SDS011;24826;52.070;20.970;2023-05-10T07:39:37;5.97;;;2.15;;
39074;SDS011;24826;52.070;20.970;2023-05-10T07:42:21;9.52;;;2.15;;
39074;SDS011;24826;52.070;20.970;2023-05-10T07:45:06;4.72;;;2.00;;
39074;SDS011;24826;52.070;20.970;2023-05-10T07:47:51;5.20;;;1.95;;
39074;SDS011;24826;52.070;20.970;2023-05-10T07:50:36;5.18;;;1.92;;
39074;SDS011;24826;52.070;20.970;2023-05-10T07:53:20;6.95;;;1.77;;
39074;SDS011;24826;52.070;20.970;2023-05-10T07:56:24;4.78;;;2.80;;
39074;SDS011;24826;52.070;20.970;2023-05-10T07:59:14;6.03;;;2.00;;
39074;SDS011;24826;52.070;20.970;2023-05-10T08:01:59;4.53;;;1.90;;
39074;SDS011;24826;52.070;20.970;2023-05-10T08:04:44;5.70;;;1.80;;
39074;SDS011;24826;52.070;20.970;2023-05-10T08:07:29;4.70;;;1.80;;
39074;SDS011;24826;52.070;20.970;2023-05-10T08:10:13;4.05;;;1.92;;
39074;SDS011;24826;52.070;20.970;2023-05-10T08:12:58;4.05;;;1.77;;
39074;SDS011;24826;52.070;20.970;2023-05-10T08:15:42;4.97;;;2.47;;
39074;SDS011;24826;52.070;20.970;2023-05-10T08:18:27;4.43;;;1.58;;
39074;SDS011;24826;52.070;20.970;2023-05-10T08:21:11;5.22;;;1.73;;
39074;SDS011;24826;52.070;20.970;2023-05-10T08:23:55;4.40;;;2.20;;
39074;SDS011;24826;52.070;20.970;2023-05-10T08:26:40;4.97;;;1.95;;
39074;SDS011;24826;52.070;20.970;2023-05-10T08:29:24;3.72;;;1.88;;
39074;SDS011;24826;52.070;20.970;2023-05-10T08:32:09;3.60;;;1.70;;
39074;SDS011;24826;52.070;20.970;2023-05-10T08:34:54;4.53;;;1.98;;
39074;SDS011;24826;52.070;20.970;2023-05-10T08:37:40;4.65;;;1.83;;
39074;SDS011;24826;52.070;20.970;2023-05-10T08:40:24;3.78;;;1.73;;
39074;SDS011;24826;52.070;20.970;2023-05-10T08:43:11;4.43;;;2.00;;
39074;SDS011;24826;52.070;20.970;2023-05-10T08:45:56;6.32;;;1.90;;
39074;SDS011;24826;52.070;20.970;2023-05-10T08:48:46;4.07;;;2.03;;
39074;SDS011;24826;52.070;20.970;2023-05-10T08:51:36;3.53;;;1.85;;
39074;SDS011;24826;52.070;20.970;2023-05-10T08:54:24;3.05;;;1.70;;
39074;SDS011;24826;52.070;20.970;2023-05-10T08:57:09;3.42;;;1.80;;
39074;SDS011;24826;52.070;20.970;2023-05-10T08:59:55;3.92;;;1.75;;
39074;SDS011;24826;52.070;20.970;2023-05-10T09:02:39;3.75;;;1.70;;
39074;SDS011;24826;52.070;20.970;2023-05-10T09:05:24;3.22;;;1.52;;
39074;SDS011;24826;52.070;20.970;2023-05-10T09:08:09;3.80;;;1.67;;
39074;SDS011;24826;52.070;20.970;2023-05-10T09:10:54;3.60;;;1.80;;
39074;SDS011;24826;52.070;20.970;2023-05-10T09:13:39;6.45;;;1.90;;
39074;SDS011;24826;52.070;20.970;2023-05-10T09:16:24;4.60;;;2.10;;
39074;SDS011;24826;52.070;20.970;2023-05-10T09:19:08;3.13;;;1.58;;
39074;SDS011;24826;52.070;20.970;2023-05-10T09:21:53;3.55;;;1.67;;
39074;SDS011;24826;52.070;20.970;2023-05-10T09:24:37;4.72;;;1.70;;
39074;SDS011;24826;52.070;20.970;2023-05-10T09:27:26;5.05;;;1.85;;
39074;SDS011;24826;52.070;20.970;2023-05-10T09:30:10;3.65;;;1.55;;
39074;SDS011;24826;52.070;20.970;2023-05-10T09:33:00;3.73;;;1.57;;
39074;SDS011;24826;52.070;20.970;2023-05-10T09:35:45;2.83;;;1.70;;
39074;SDS011;24826;52.070;20.970;2023-05-10T09:38:30;4.47;;;1.70;;
39074;SDS011;24826;52.070;20.970;2023-05-10T09:41:29;5.90;;;1.60;;
39074;SDS011;24826;52.070;20.970;2023-05-10T09:44:16;5.57;;;2.00;;
39074;SDS011;24826;52.070;20.970;2023-05-10T09:47:02;3.72;;;1.50;;
39074;SDS011;24826;52.070;20.970;2023-05-10T09:49:50;2.92;;;1.50;;
39074;SDS011;24826;52.070;20.970;2023-05-10T09:55:40;3.97;;;1.77;;
39074;SDS011;24826;52.070;20.970;2023-05-10T09:58:25;3.17;;;1.50;;
39074;SDS011;24826;52.070;20.970;2023-05-10T10:01:12;3.40;;;1.63;;
39074;SDS011;24826;52.070;20.970;2023-05-10T10:03:56;3.75;;;1.60;;
39074;SDS011;24826;52.070;20.970;2023-05-10T10:06:42;2.88;;;1.50;;
39074;SDS011;24826;52.070;20.970;2023-05-10T10:09:26;3.53;;;1.42;;
39074;SDS011;24826;52.070;20.970;2023-05-10T10:12:11;3.97;;;1.55;;
39074;SDS011;24826;52.070;20.970;2023-05-10T10:14:56;6.03;;;2.05;;
39074;SDS011;24826;52.070;20.970;2023-05-10T10:17:41;5.50;;;1.90;;
39074;SDS011;24826;52.070;20.970;2023-05-10T10:20:27;3.40;;;1.70;;
39074;SDS011;24826;52.070;20.970;2023-05-10T10:23:12;3.28;;;1.80;;
39074;SDS011;24826;52.070;20.970;2023-05-10T10:25:57;3.33;;;1.70;;
39074;SDS011;24826;52.070;20.970;2023-05-10T10:28:47;5.20;;;1.45;;
39074;SDS011;24826;52.070;20.970;2023-05-10T10:34:55;3.70;;;1.48;;
39074;SDS011;24826;52.070;20.970;2023-05-10T10:37:46;3.65;;;1.67;;
39074;SDS011;24826;52.070;20.970;2023-05-10T10:40:34;4.05;;;1.60;;
39074;SDS011;24826;52.070;20.970;2023-05-10T10:49:10;3.42;;;1.30;;
39074;SDS011;24826;52.070;20.970;2023-05-10T10:55:05;6.68;;;1.65;;
39074;SDS011;24826;52.070;20.970;2023-05-10T10:57:53;2.53;;;1.30;;
39074;SDS011;24826;52.070;20.970;2023-05-10T11:00:44;3.08;;;1.35;;
39074;SDS011;24826;52.070;20.970;2023-05-10T11:03:29;2.90;;;1.70;;
39074;SDS011;24826;52.070;20.970;2023-05-10T11:06:17;2.60;;;1.48;;
39074;SDS011;24826;52.070;20.970;2023-05-10T11:09:13;4.18;;;1.63;;
39074;SDS011;24826;52.070;20.970;2023-05-10T11:11:57;3.42;;;1.55;;
39074;SDS011;24826;52.070;20.970;2023-05-10T11:14:49;4.00;;;1.40;;
39074;SDS011;24826;52.070;20.970;2023-05-10T11:17:34;3.97;;;1.45;;
39074;SDS011;24826;52.070;20.970;2023-05-10T11:20:19;3.10;;;1.60;;
39074;SDS011;24826;52.070;20.970;2023-05-10T11:23:11;2.88;;;1.27;;
39074;SDS011;24826;52.070;20.970;2023-05-10T11:25:57;2.65;;;1.20;;
39074;SDS011;24826;52.070;20.970;2023-05-10T11:28:46;3.25;;;1.50;;
39074;SDS011;24826;52.070;20.970;2023-05-10T11:31:32;3.10;;;1.23;;
39074;SDS011;24826;52.070;20.970;2023-05-10T11:34:22;3.63;;;1.50;;
39074;SDS011;24826;52.070;20.970;2023-05-10T11:37:12;4.03;;;1.40;;
39074;SDS011;24826;52.070;20.970;2023-05-10T11:39:55;2.58;;;1.20;;
39074;SDS011;24826;52.070;20.970;2023-05-10T11:42:40;3.55;;;1.40;;
39074;SDS011;24826;52.070;20.970;2023-05-10T11:45:24;3.20;;;1.40;;
39074;SDS011;24826;52.070;20.970;2023-05-10T11:48:10;2.55;;;1.30;;
39074;SDS011;24826;52.070;20.970;2023-05-10T11:50:54;2.78;;;1.40;;
39074;SDS011;24826;52.070;20.970;2023-05-10T11:53:41;2.90;;;1.27;;
39074;SDS011;24826;52.070;20.970;2023-05-10T11:56:25;2.78;;;1.50;;
39074;SDS011;24826;52.070;20.970;2023-05-10T11:59:13;3.03;;;1.52;;
39074;SDS011;24826;52.070;20.970;2023-05-10T12:01:58;4.93;;;1.48;;
39074;SDS011;24826;52.070;20.970;2023-05-10T12:04:44;2.72;;;1.30;;
39074;SDS011;24826;52.070;20.970;2023-05-10T12:07:28;6.68;;;1.73;;
39074;SDS011;24826;52.070;20.970;2023-05-10T12:10:13;3.03;;;1.50;;
39074;SDS011;24826;52.070;20.970;2023-05-10T12:13:05;2.75;;;1.33;;
39074;SDS011;24826;52.070;20.970;2023-05-10T12:15:58;2.60;;;1.27;;
39074;SDS011;24826;52.070;20.970;2023-05-10T12:18:42;2.05;;;1.10;;
39074;SDS011;24826;52.070;20.970;2023-05-10T12:21:28;2.67;;;1.25;;
39074;SDS011;24826;52.070;20.970;2023-05-10T12:24:14;2.53;;;1.20;;
39074;SDS011;24826;52.070;20.970;2023-05-10T12:27:04;2.03;;;1.00;;
39074;SDS011;24826;52.070;20.970;2023-05-10T12:29:49;2.58;;;1.27;;
39074;SDS011;24826;52.070;20.970;2023-05-10T12:32:38;2.90;;;1.33;;
39074;SDS011;24826;52.070;20.970;2023-05-10T12:35:25;2.25;;;1.20;;
39074;SDS011;24826;52.070;20.970;2023-05-10T12:41:31;2.40;;;1.25;;
39074;SDS011;24826;52.070;20.970;2023-05-10T12:44:15;4.40;;;1.48;;
39074;SDS011;24826;52.070;20.970;2023-05-10T12:46:59;7.22;;;1.65;;
39074;SDS011;24826;52.070;20.970;2023-05-10T12:49:44;4.53;;;1.35;;
39074;SDS011;24826;52.070;20.970;2023-05-10T12:52:29;4.05;;;1.10;;
39074;SDS011;24826;52.070;20.970;2023-05-10T12:55:15;4.25;;;1.45;;
39074;SDS011;24826;52.070;20.970;2023-05-10T12:58:00;3.63;;;1.42;;
39074;SDS011;24826;52.070;20.970;2023-05-10T13:00:45;3.55;;;1.33;;
39074;SDS011;24826;52.070;20.970;2023-05-10T13:03:29;5.13;;;1.10;;
39074;SDS011;24826;52.070;20.970;2023-05-10T13:06:14;3.20;;;1.30;;
39074;SDS011;24826;52.070;20.970;2023-05-10T13:08:59;3.03;;;1.27;;
39074;SDS011;24826;52.070;20.970;2023-05-10T13:11:43;4.38;;;1.27;;
39074;SDS011;24826;52.070;20.970;2023-05-10T13:14:29;3.63;;;1.10;;
39074;SDS011;24826;52.070;20.970;2023-05-10T13:17:13;3.00;;;1.17;;
39074;SDS011;24826;52.070;20.970;2023-05-10T13:19:58;3.30;;;1.30;;
39074;SDS011;24826;52.070;20.970;2023-05-10T13:22:43;2.05;;;1.08;;
39074;SDS011;24826;52.070;20.970;2023-05-10T13:25:27;3.08;;;1.17;;
39074;SDS011;24826;52.070;20.970;2023-05-10T13:28:12;2.83;;;1.10;;
39074;SDS011;24826;52.070;20.970;2023-05-10T13:30:56;2.53;;;1.50;;
39074;SDS011;24826;52.070;20.970;2023-05-10T13:33:41;3.90;;;1.38;;
39074;SDS011;24826;52.070;20.970;2023-05-10T13:36:25;4.53;;;1.40;;
39074;SDS011;24826;52.070;20.970;2023-05-10T13:39:10;2.17;;;1.20;;
39074;SDS011;24826;52.070;20.970;2023-05-10T13:41:54;4.95;;;1.15;;
39074;SDS011;24826;52.070;20.970;2023-05-10T13:44:38;2.67;;;1.30;;
39074;SDS011;24826;52.070;20.970;2023-05-10T13:47:23;3.08;;;1.10;;
39074;SDS011;24826;52.070;20.970;2023-05-10T13:50:08;3.20;;;1.10;;
39074;SDS011;24826;52.070;20.970;2023-05-10T13:52:52;4.50;;;1.40;;
39074;SDS011;24826;52.070;20.970;2023-05-10T13:59:36;1.98;;;1.08;;
39074;SDS011;24826;52.070;20.970;2023-05-10T14:02:20;3.90;;;1.30;;
39074;SDS011;24826;52.070;20.970;2023-05-10T14:05:05;2.20;;;1.10;;
39074;SDS011;24826;52.070;20.970;2023-05-10T14:07:50;3.55;;;1.52;;
39074;SDS011;24826;52.070;20.970;2023-05-10T14:10:34;7.55;;;1.63;;
39074;SDS011;24826;52.070;20.970;2023-05-10T14:13:19;9.88;;;2.15;;
39074;SDS011;24826;52.070;20.970;2023-05-10T14:16:03;8.18;;;1.88;;
39074;SDS011;24826;52.070;20.970;2023-05-10T14:18:48;11.23;;;1.88;;
39074;SDS011;24826;52.070;20.970;2023-05-10T14:21:32;6.47;;;2.10;;
39074;SDS011;24826;52.070;20.970;2023-05-10T14:24:17;8.27;;;1.90;;
39074;SDS011;24826;52.070;20.970;2023-05-10T14:27:01;8.65;;;2.10;;
39074;SDS011;24826;52.070;20.970;2023-05-10T14:29:47;8.18;;;2.10;;
39074;SDS011;24826;52.070;20.970;2023-05-10T14:32:31;7.45;;;1.80;;
39074;SDS011;24826;52.070;20.970;2023-05-10T14:35:15;6.53;;;1.90;;
39074;SDS011;24826;52.070;20.970;2023-05-10T14:38:00;10.10;;;2.15;;
39074;SDS011;24826;52.070;20.970;2023-05-10T14:40:46;4.72;;;2.13;;
39074;SDS011;24826;52.070;20.970;2023-05-10T14:43:31;4.90;;;1.80;;
39074;SDS011;24826;52.070;20.970;2023-05-10T14:46:15;5.05;;;1.90;;
39074;SDS011;24826;52.070;20.970;2023-05-10T14:49:00;23.73;;;3.20;;
39074;SDS011;24826;52.070;20.970;2023-05-10T14:51:44;6.90;;;2.00;;
39074;SDS011;24826;52.070;20.970;2023-05-10T14:57:51;7.30;;;2.20;;
39074;SDS011;24826;52.070;20.970;2023-05-10T15:00:35;7.00;;;1.90;;
39074;SDS011;24826;52.070;20.970;2023-05-10T15:03:20;6.28;;;2.20;;
39074;SDS011;24826;52.070;20.970;2023-05-10T15:06:04;4.60;;;1.85;;
39074;SDS011;24826;52.070;20.970;2023-05-10T15:08:49;7.97;;;1.90;;
39074;SDS011;24826;52.070;20.970;2023-05-10T15:11:33;5.85;;;1.92;;
39074;SDS011;24826;52.070;20.970;2023-05-10T15:14:18;9.60;;;2.10;;
39074;SDS011;24826;52.070;20.970;2023-05-10T15:17:02;3.47;;;1.80;;
39074;SDS011;24826;52.070;20.970;2023-05-10T15:19:47;6.28;;;2.17;;
39074;SDS011;24826;52.070;20.970;2023-05-10T15:22:32;7.28;;;2.08;;
39074;SDS011;24826;52.070;20.970;2023-05-10T15:25:17;6.70;;;1.65;;
39074;SDS011;24826;52.070;20.970;2023-05-10T15:28:01;4.07;;;2.15;;
39074;SDS011;24826;52.070;20.970;2023-05-10T15:30:46;9.77;;;2.10;;
39074;SDS011;24826;52.070;20.970;2023-05-10T15:33:30;5.78;;;1.77;;
39074;SDS011;24826;52.070;20.970;2023-05-10T15:36:15;7.30;;;2.17;;
39074;SDS011;24826;52.070;20.970;2023-05-10T15:39:01;9.77;;;1.88;;
39074;SDS011;24826;52.070;20.970;2023-05-10T15:41:47;9.35;;;1.95;;
39074;SDS011;24826;52.070;20.970;2023-05-10T15:44:31;7.65;;;1.85;;
39074;SDS011;24826;52.070;20.970;2023-05-10T15:47:16;5.68;;;1.90;;
39074;SDS011;24826;52.070;20.970;2023-05-10T15:50:00;5.32;;;1.77;;
39074;SDS011;24826;52.070;20.970;2023-05-10T15:52:45;5.38;;;2.15;;
39074;SDS011;24826;52.070;20.970;2023-05-10T15:55:29;5.47;;;2.25;;
39074;SDS011;24826;52.070;20.970;2023-05-10T15:58:14;6.15;;;1.90;;
39074;SDS011;24826;52.070;20.970;2023-05-10T16:00:58;6.50;;;1.92;;
39074;SDS011;24826;52.070;20.970;2023-05-10T16:03:42;5.18;;;1.88;;
39074;SDS011;24826;52.070;20.970;2023-05-10T16:06:27;4.35;;;1.48;;
39074;SDS011;24826;52.070;20.970;2023-05-10T16:09:11;6.35;;;2.10;;
39074;SDS011;24826;52.070;20.970;2023-05-10T16:11:56;6.03;;;1.75;;
39074;SDS011;24826;52.070;20.970;2023-05-10T16:14:41;5.88;;;2.13;;
39074;SDS011;24826;52.070;20.970;2023-05-10T16:17:25;4.20;;;1.75;;
39074;SDS011;24826;52.070;20.970;2023-05-10T16:20:09;5.57;;;1.92;;
39074;SDS011;24826;52.070;20.970;2023-05-10T16:22:54;5.60;;;2.10;;
39074;SDS011;24826;52.070;20.970;2023-05-10T16:25:39;5.40;;;1.95;;
39074;SDS011;24826;52.070;20.970;2023-05-10T16:28:24;5.57;;;1.83;;
39074;SDS011;24826;52.070;20.970;2023-05-10T16:31:08;6.50;;;1.90;;
39074;SDS011;24826;52.070;20.970;2023-05-10T16:33:52;3.33;;;1.48;;
39074;SDS011;24826;52.070;20.970;2023-05-10T16:36:37;4.53;;;1.85;;
39074;SDS011;24826;52.070;20.970;2023-05-10T16:39:21;6.28;;;2.00;;
39074;SDS011;24826;52.070;20.970;2023-05-10T16:42:06;4.20;;;1.90;;
39074;SDS011;24826;52.070;20.970;2023-05-10T16:44:51;11.80;;;1.90;;
39074;SDS011;24826;52.070;20.970;2023-05-10T16:47:35;7.38;;;2.08;;
39074;SDS011;24826;52.070;20.970;2023-05-10T16:50:21;4.55;;;1.83;;
39074;SDS011;24826;52.070;20.970;2023-05-10T16:53:05;3.88;;;1.42;;
39074;SDS011;24826;52.070;20.970;2023-05-10T16:55:49;7.35;;;2.03;;
39074;SDS011;24826;52.070;20.970;2023-05-10T16:58:33;7.47;;;1.83;;
39074;SDS011;24826;52.070;20.970;2023-05-10T17:01:18;7.13;;;2.13;;
39074;SDS011;24826;52.070;20.970;2023-05-10T17:04:02;3.88;;;1.67;;